createdAt,value
2019-03-08T00:02:28.374Z,1.30
2019-03-08T00:04:57.293Z,1.57
2019-03-08T00:07:26.347Z,1.40
2019-03-08T00:09:55.626Z,1.30
2019-03-08T00:12:24.665Z,1.20
2019-03-08T00:14:53.569Z,1.43
2019-03-08T00:17:22.470Z,1.37
2019-03-08T00:19:51.522Z,1.37
2019-03-08T00:22:20.462Z,1.30
2019-03-08T00:24:49.479Z,1.40
2019-03-08T00:27:18.410Z,1.10
2019-03-08T00:29:47.373Z,1.20
2019-03-08T00:32:16.298Z,1.40
2019-03-08T00:34:45.215Z,1.17
2019-03-08T00:37:14.182Z,1.53
2019-03-08T00:39:43.155Z,1.30
2019-03-08T00:42:12.059Z,1.27
2019-03-08T00:44:40.995Z,1.40
2019-03-08T00:47:10.089Z,1.40
2019-03-08T00:49:39.008Z,1.40
2019-03-08T00:52:07.897Z,1.10
2019-03-08T00:54:36.803Z,1.27
2019-03-08T00:57:05.849Z,1.80
2019-03-08T00:59:34.800Z,1.13
2019-03-08T01:02:03.870Z,1.10
2019-03-08T01:04:32.830Z,1.37
2019-03-08T01:07:02.080Z,1.50
2019-03-08T01:09:31.051Z,1.10
2019-03-08T01:12:00.020Z,1.53
2019-03-08T01:14:29.013Z,1.60
2019-03-08T01:16:57.985Z,1.20
2019-03-08T01:19:26.947Z,1.30
2019-03-08T01:21:56.137Z,1.73
2019-03-08T01:24:25.024Z,1.20
2019-03-08T01:26:53.928Z,1.23
2019-03-08T01:29:23.012Z,1.20
2019-03-08T01:31:53.571Z,1.20
2019-03-08T01:34:22.632Z,1.60
2019-03-08T01:36:51.626Z,1.50
2019-03-08T01:39:20.670Z,1.43
2019-03-08T01:41:49.680Z,1.50
2019-03-08T01:44:18.673Z,1.37
2019-03-08T01:46:47.747Z,1.23
2019-03-08T01:49:17.081Z,1.40
2019-03-08T01:54:32.776Z,1.53
2019-03-08T01:57:01.680Z,1.53
2019-03-08T01:59:30.578Z,1.10
2019-03-08T02:01:59.474Z,1.30
2019-03-08T02:04:28.397Z,1.20
2019-03-08T02:06:58.468Z,1.30
2019-03-08T02:09:27.438Z,1.60
2019-03-08T02:11:56.344Z,1.63
2019-03-08T02:14:26.690Z,1.43
2019-03-08T02:16:56.546Z,1.40
2019-03-08T02:19:25.444Z,1.10
2019-03-08T02:21:54.438Z,1.30
2019-03-08T02:24:23.400Z,1.30
2019-03-08T02:26:52.298Z,1.37
2019-03-08T02:29:21.212Z,1.27
2019-03-08T02:31:50.113Z,1.20
2019-03-08T02:34:20.490Z,1.17
2019-03-08T02:36:49.415Z,1.10
2019-03-08T02:39:18.338Z,1.43
2019-03-08T02:41:47.379Z,1.27
2019-03-08T02:44:16.361Z,1.10
2019-03-08T02:46:45.426Z,1.07
2019-03-08T02:49:14.438Z,1.43
2019-03-08T02:51:43.363Z,1.10
2019-03-08T02:54:12.301Z,1.20
2019-03-08T02:56:41.464Z,1.30
2019-03-08T02:59:10.397Z,1.30
2019-03-08T03:01:39.289Z,1.10
2019-03-08T03:04:08.189Z,1.20
2019-03-08T03:06:37.097Z,1.10
2019-03-08T03:09:06.085Z,1.07
2019-03-08T03:11:36.597Z,0.90
2019-03-08T03:14:05.586Z,0.70
2019-03-08T03:16:34.589Z,1.07
2019-03-08T03:19:03.725Z,0.90
2019-03-08T03:21:32.645Z,0.67
2019-03-08T03:24:01.537Z,0.67
2019-03-08T03:26:30.434Z,0.60
2019-03-08T03:29:00.468Z,0.47
2019-03-08T03:31:29.387Z,0.60
2019-03-08T03:33:58.349Z,0.70
2019-03-08T03:36:27.326Z,0.50
2019-03-08T03:38:56.505Z,0.67
2019-03-08T03:41:25.400Z,0.67
2019-03-08T03:43:54.393Z,0.67
2019-03-08T03:46:23.298Z,0.80
2019-03-08T03:48:52.205Z,0.90
2019-03-08T03:51:21.263Z,0.80
2019-03-08T03:53:50.474Z,0.93
2019-03-08T03:56:19.378Z,0.63
2019-03-08T03:58:48.305Z,1.00
2019-03-08T04:01:18.838Z,0.70
2019-03-08T04:03:47.732Z,0.80
2019-03-08T04:06:16.661Z,0.80
2019-03-08T04:08:45.629Z,1.00
2019-03-08T04:11:14.600Z,1.00
2019-03-08T04:13:43.605Z,0.67
2019-03-08T04:16:12.575Z,0.80
2019-03-08T04:18:41.550Z,0.77
2019-03-08T04:21:10.759Z,1.17
2019-03-08T04:23:39.646Z,1.07
2019-03-08T04:26:08.546Z,0.47
2019-03-08T04:28:37.458Z,0.60
2019-03-08T04:31:06.378Z,0.30
2019-03-08T04:33:35.288Z,0.77
2019-03-08T04:36:04.497Z,0.60
2019-03-08T04:38:33.594Z,0.60
2019-03-08T04:41:02.488Z,0.47
2019-03-08T04:43:31.385Z,0.57
2019-03-08T04:46:00.310Z,0.70
2019-03-08T04:48:29.193Z,0.70
2019-03-08T04:50:58.368Z,0.50
2019-03-08T04:53:27.349Z,0.47
2019-03-08T04:55:56.247Z,0.50
2019-03-08T04:58:25.150Z,0.40
2019-03-08T05:00:55.222Z,0.37
2019-03-08T05:03:24.112Z,0.50
2019-03-08T05:05:53.013Z,0.47
2019-03-08T05:08:21.922Z,0.50
2019-03-08T05:10:50.889Z,0.40
2019-03-08T05:13:19.782Z,0.50
2019-03-08T05:15:48.702Z,0.50
2019-03-08T05:18:17.598Z,0.40
2019-03-08T05:20:47.573Z,0.30
2019-03-08T05:23:16.585Z,0.60
2019-03-08T05:25:45.564Z,0.60
2019-03-08T05:28:14.448Z,0.30
2019-03-08T05:30:43.362Z,0.30
2019-03-08T05:33:12.435Z,0.30
2019-03-08T05:35:41.362Z,0.30
2019-03-08T05:38:10.256Z,0.20
2019-03-08T05:40:39.152Z,0.20
2019-03-08T05:43:08.058Z,0.17
2019-03-08T05:45:36.945Z,0.20
2019-03-08T05:48:06.210Z,0.10
2019-03-08T05:50:35.140Z,0.10
2019-03-08T05:53:04.032Z,0.10
2019-03-08T05:55:33.045Z,0.30
2019-03-08T05:58:01.962Z,0.20
2019-03-08T06:00:34.584Z,0.23
2019-03-08T06:03:03.145Z,0.30
2019-03-08T06:05:32.109Z,0.20
2019-03-08T06:08:01.007Z,0.20
2019-03-08T06:10:36.451Z,0.20
2019-03-08T06:13:06.016Z,0.20
2019-03-08T06:15:35.052Z,0.23
2019-03-08T06:18:04.028Z,0.30
2019-03-08T06:20:34.139Z,0.20
2019-03-08T06:23:04.488Z,0.20
2019-03-08T06:25:33.705Z,0.20
2019-03-08T06:28:02.682Z,0.20
2019-03-08T06:30:31.670Z,0.40
2019-03-08T06:33:01.624Z,0.30
2019-03-08T06:35:30.681Z,0.30
2019-03-08T06:37:59.676Z,0.30
2019-03-08T06:40:28.659Z,0.40
2019-03-08T06:42:57.558Z,0.30
2019-03-08T06:45:26.556Z,0.40
2019-03-08T06:47:55.448Z,0.30
2019-03-08T06:50:24.344Z,0.40
2019-03-08T06:52:53.444Z,0.40
2019-03-08T06:55:22.342Z,0.40
2019-03-08T06:57:58.480Z,0.40
2019-03-08T07:00:31.720Z,0.40
2019-03-08T07:03:00.681Z,0.40
2019-03-08T07:05:29.636Z,0.57
2019-03-08T07:07:58.544Z,0.57
2019-03-08T07:10:27.481Z,0.50
2019-03-08T07:13:02.760Z,0.30
2019-03-08T07:15:27.957Z,0.37
2019-03-08T07:17:56.875Z,0.50
2019-03-08T07:20:27.398Z,0.30
2019-03-08T07:23:11.146Z,0.30
2019-03-08T07:25:51.416Z,0.33
2019-03-08T07:28:36.668Z,0.40
2019-03-08T07:31:13.191Z,0.47
2019-03-08T07:33:53.196Z,0.60
2019-03-08T07:36:21.931Z,0.60
2019-03-08T07:39:09.176Z,0.50
2019-03-08T07:41:42.887Z,0.60
2019-03-08T07:44:25.334Z,0.53
2019-03-08T07:47:01.828Z,0.40
2019-03-08T07:49:50.418Z,0.60
2019-03-08T07:52:37.345Z,0.50
2019-03-08T07:55:12.081Z,0.63
2019-03-08T07:57:48.723Z,1.27
2019-03-08T08:00:28.071Z,1.00
2019-03-08T08:03:04.847Z,1.10
2019-03-08T08:05:38.513Z,0.87
2019-03-08T08:08:11.850Z,0.80
2019-03-08T08:10:45.498Z,0.73
2019-03-08T08:13:30.934Z,0.70
2019-03-08T08:16:04.502Z,0.57
2019-03-08T08:18:38.083Z,0.50
2019-03-08T08:21:11.628Z,0.57
2019-03-08T08:23:45.421Z,0.50
2019-03-08T08:26:16.056Z,0.67
2019-03-08T08:28:58.929Z,0.77
2019-03-08T08:31:29.518Z,0.60
2019-03-08T08:34:15.214Z,0.83
2019-03-08T08:36:46.035Z,0.43
2019-03-08T08:39:25.661Z,0.60
2019-03-08T08:42:08.218Z,0.70
2019-03-08T08:44:53.012Z,0.90
2019-03-08T08:47:39.765Z,1.00
2019-03-08T08:50:13.916Z,0.80
2019-03-08T08:52:50.948Z,0.83
2019-03-08T08:55:24.414Z,0.80
2019-03-08T08:58:03.781Z,1.23
2019-03-08T09:00:50.677Z,1.27
2019-03-08T09:03:39.300Z,0.87
2019-03-08T09:06:10.101Z,0.90
2019-03-08T09:08:55.565Z,0.93
2019-03-08T09:11:29.209Z,0.73
2019-03-08T09:14:02.777Z,0.87
2019-03-08T09:16:35.988Z,1.10
2019-03-08T09:19:09.095Z,1.20
2019-03-08T09:21:42.152Z,1.00
2019-03-08T09:24:18.434Z,1.10
2019-03-08T09:26:52.038Z,1.40
2019-03-08T09:29:22.598Z,3.50
2019-03-08T09:31:56.223Z,1.57
2019-03-08T09:34:45.147Z,1.07
2019-03-08T09:37:34.000Z,1.37
2019-03-08T09:40:05.001Z,1.20
2019-03-08T09:42:35.526Z,1.40
2019-03-08T09:45:07.540Z,1.50
2019-03-08T09:47:44.172Z,1.03
2019-03-08T09:50:31.138Z,1.43
2019-03-08T09:53:02.121Z,1.00
2019-03-08T09:55:35.410Z,1.03
2019-03-08T09:58:09.754Z,0.90
2019-03-08T10:00:43.079Z,1.10
2019-03-08T10:03:13.952Z,1.00
2019-03-08T10:05:44.652Z,1.00
2019-03-08T10:08:15.194Z,1.40
2019-03-08T10:10:45.786Z,1.50
2019-03-08T10:13:22.412Z,1.20
2019-03-08T10:15:53.170Z,1.10
2019-03-08T10:18:23.845Z,1.30
2019-03-08T10:20:54.425Z,1.40
2019-03-08T10:23:25.029Z,1.23
2019-03-08T10:26:10.591Z,1.20
2019-03-08T10:28:50.314Z,1.60
2019-03-08T10:31:20.877Z,1.90
2019-03-08T10:33:51.473Z,1.40
2019-03-08T10:36:27.825Z,1.37
2019-03-08T10:39:01.053Z,1.30
2019-03-08T10:41:33.237Z,1.33
2019-03-08T10:44:11.116Z,1.57
2019-03-08T10:46:42.308Z,1.43
2019-03-08T10:49:15.587Z,1.40
2019-03-08T10:51:51.928Z,1.23
2019-03-08T10:54:28.455Z,1.40
2019-03-08T10:57:08.329Z,1.27
2019-03-08T10:59:38.861Z,0.93
2019-03-08T11:02:09.663Z,0.80
2019-03-08T11:04:40.297Z,0.70
2019-03-08T11:07:17.105Z,1.27
2019-03-08T11:09:47.645Z,1.00
2019-03-08T11:12:34.606Z,1.03
2019-03-08T11:15:08.592Z,1.10
2019-03-08T11:17:39.195Z,0.83
2019-03-08T11:20:11.111Z,0.83
2019-03-08T11:22:53.531Z,0.90
2019-03-08T11:25:40.588Z,0.70
2019-03-08T11:28:11.244Z,0.83
2019-03-08T11:30:41.931Z,0.90
2019-03-08T11:33:15.241Z,1.07
2019-03-08T11:35:48.711Z,1.50
2019-03-08T11:38:22.801Z,2.13
2019-03-08T11:40:59.500Z,1.17
2019-03-08T11:43:32.659Z,1.13
2019-03-08T11:46:03.571Z,1.10
2019-03-08T11:48:50.596Z,0.70
2019-03-08T11:51:21.121Z,1.00
2019-03-08T11:53:56.452Z,1.20
2019-03-08T11:56:32.840Z,1.33
2019-03-08T11:59:09.598Z,0.90
2019-03-08T12:01:59.224Z,0.90
2019-03-08T12:04:29.855Z,0.93
2019-03-08T12:07:06.120Z,0.70
2019-03-08T12:09:36.716Z,1.07
2019-03-08T12:12:23.856Z,0.90
2019-03-08T12:14:54.461Z,1.17
2019-03-08T12:17:24.998Z,1.20
2019-03-08T12:20:01.745Z,1.67
2019-03-08T12:22:45.296Z,1.50
2019-03-08T12:25:15.972Z,0.93
2019-03-08T12:27:46.589Z,0.90
2019-03-08T12:30:29.129Z,1.20
2019-03-08T12:32:59.719Z,1.40
2019-03-08T12:35:33.235Z,1.83
2019-03-08T12:38:03.795Z,1.13
2019-03-08T12:40:34.318Z,1.40
2019-03-08T12:43:08.077Z,1.43
2019-03-08T12:45:37.172Z,1.50
2019-03-08T12:48:07.797Z,1.40
2019-03-08T12:50:47.389Z,1.00
2019-03-08T12:53:32.960Z,1.20
2019-03-08T12:56:15.954Z,1.33
2019-03-08T12:58:55.560Z,1.23
2019-03-08T13:01:28.801Z,1.00
2019-03-08T13:03:59.344Z,1.03
2019-03-08T13:06:29.961Z,1.47
2019-03-08T13:09:03.587Z,1.40
2019-03-08T13:11:34.103Z,1.13
2019-03-08T13:14:03.033Z,1.20
2019-03-08T13:16:32.026Z,0.90
2019-03-08T13:19:00.912Z,1.20
2019-03-08T13:21:30.948Z,1.03
2019-03-08T13:23:59.934Z,1.77
2019-03-08T13:26:29.091Z,1.10
2019-03-08T13:28:58.094Z,1.00
2019-03-08T13:31:27.002Z,1.30
2019-03-08T13:33:56.005Z,0.80
2019-03-08T13:36:24.972Z,0.80
2019-03-08T13:38:53.944Z,0.80
2019-03-08T13:41:23.140Z,1.00
2019-03-08T13:43:52.056Z,1.13
2019-03-08T13:46:21.074Z,0.90
2019-03-08T13:48:49.996Z,0.73
2019-03-08T13:51:18.928Z,1.00
2019-03-08T13:53:47.832Z,0.90
2019-03-08T13:56:16.828Z,0.90
2019-03-08T13:58:47.192Z,1.03
2019-03-08T14:01:16.149Z,0.73
2019-03-08T14:03:45.092Z,1.00
2019-03-08T14:06:13.997Z,1.60
2019-03-08T14:08:43.041Z,1.20
2019-03-08T14:11:11.959Z,1.10
2019-03-08T14:13:40.918Z,1.00
2019-03-08T14:16:09.906Z,1.17
2019-03-08T14:18:38.832Z,0.93
2019-03-08T14:21:07.809Z,1.10
2019-03-08T14:23:36.970Z,0.90
2019-03-08T14:26:06.078Z,1.20
2019-03-08T14:28:34.960Z,1.03
2019-03-08T14:31:14.628Z,0.93
2019-03-08T14:33:43.522Z,1.13
2019-03-08T14:36:12.710Z,0.90
2019-03-08T14:38:41.652Z,1.30
2019-03-08T14:41:15.251Z,1.00
2019-03-08T14:43:58.121Z,1.20
2019-03-08T14:46:28.829Z,1.17
2019-03-08T14:48:57.728Z,1.13
2019-03-08T14:51:26.787Z,1.23
2019-03-08T14:53:55.688Z,1.20
2019-03-08T14:56:24.577Z,1.20
2019-03-08T14:58:53.559Z,1.33
2019-03-08T15:01:22.451Z,1.03
2019-03-08T15:03:51.391Z,1.10
2019-03-08T15:06:21.265Z,0.97
2019-03-08T15:08:51.247Z,1.60
2019-03-08T15:11:23.575Z,1.10
2019-03-08T15:13:52.363Z,0.97
2019-03-08T15:16:22.337Z,1.30
2019-03-08T15:18:51.371Z,1.47
2019-03-08T15:21:20.267Z,1.10
2019-03-08T15:23:50.927Z,1.10
2019-03-08T15:26:19.779Z,1.20
2019-03-08T15:28:48.769Z,1.20
2019-03-08T15:31:17.743Z,1.00
2019-03-08T15:33:46.740Z,1.10
2019-03-08T15:36:15.640Z,1.10
2019-03-08T15:38:44.654Z,0.97
2019-03-08T15:41:13.639Z,1.27
2019-03-08T15:43:42.546Z,1.03
2019-03-08T15:46:11.573Z,1.13
2019-03-08T15:48:40.488Z,1.20
2019-03-08T15:51:09.761Z,1.50
2019-03-08T15:53:38.660Z,1.23
2019-03-08T15:56:07.592Z,1.23
2019-03-08T15:58:36.476Z,1.03
2019-03-08T16:01:05.583Z,1.43
2019-03-08T16:03:35.320Z,1.23
2019-03-08T16:06:06.387Z,1.00
2019-03-08T16:08:35.898Z,1.00
2019-03-08T16:11:05.638Z,1.13
2019-03-08T16:13:34.539Z,1.20
2019-03-08T16:16:03.517Z,1.00
2019-03-08T16:18:32.516Z,1.30
2019-03-08T16:21:01.400Z,0.97
2019-03-08T16:23:30.289Z,1.00
2019-03-08T16:25:59.223Z,0.90
2019-03-08T16:28:28.012Z,0.97
2019-03-08T16:31:04.241Z,0.73
2019-03-08T16:33:44.013Z,0.80
2019-03-08T16:36:31.043Z,1.20
2019-03-08T16:39:04.543Z,0.80
2019-03-08T16:41:39.978Z,0.90
2019-03-08T16:44:10.401Z,1.00
2019-03-08T16:46:43.705Z,1.00
2019-03-08T16:49:14.904Z,1.00
2019-03-08T16:51:46.456Z,1.07
2019-03-08T16:54:23.009Z,1.00
2019-03-08T16:56:53.966Z,1.00
2019-03-08T16:59:24.497Z,1.00
2019-03-08T17:01:58.422Z,1.00
2019-03-08T17:04:28.976Z,1.23
2019-03-08T17:06:59.497Z,1.00
2019-03-08T17:09:33.147Z,1.13
2019-03-08T17:12:03.682Z,0.90
2019-03-08T17:14:46.643Z,1.10
2019-03-08T17:17:17.353Z,0.93
2019-03-08T17:19:50.938Z,1.00
2019-03-08T17:22:21.571Z,1.10
2019-03-08T17:25:00.754Z,0.93
2019-03-08T17:27:39.891Z,1.40
2019-03-08T17:30:27.075Z,1.00
2019-03-08T17:32:57.722Z,1.10
2019-03-08T17:35:35.266Z,1.17
2019-03-08T17:38:06.018Z,1.13
2019-03-08T17:40:45.433Z,1.00
2019-03-08T17:43:32.698Z,1.30
2019-03-08T17:46:15.255Z,1.17
2019-03-08T17:48:45.893Z,1.50
2019-03-08T17:51:31.720Z,1.30
2019-03-08T17:54:18.995Z,1.30
2019-03-08T17:56:52.654Z,1.17
2019-03-08T17:59:23.191Z,1.00
2019-03-08T18:02:02.705Z,1.10
2019-03-08T18:04:39.333Z,1.20
2019-03-08T18:07:16.702Z,1.07
2019-03-08T18:09:56.461Z,1.13
2019-03-08T18:12:43.734Z,1.87
2019-03-08T18:15:32.484Z,1.93
2019-03-08T18:18:03.106Z,1.43
2019-03-08T18:20:33.732Z,1.47
2019-03-08T18:23:04.265Z,1.50
2019-03-08T18:25:41.897Z,1.40
2019-03-08T18:28:29.015Z,1.10
2019-03-08T18:30:59.702Z,1.60
2019-03-08T18:33:30.302Z,1.37
2019-03-08T18:36:13.206Z,1.47
2019-03-08T18:38:46.464Z,1.90
2019-03-08T18:41:33.291Z,1.60
2019-03-08T18:44:03.998Z,1.30
2019-03-08T18:46:51.117Z,1.70
2019-03-08T18:49:24.437Z,1.43
2019-03-08T18:51:55.257Z,1.80
2019-03-08T18:54:28.590Z,1.63
2019-03-08T18:56:59.236Z,1.80
2019-03-08T18:59:32.567Z,2.00
2019-03-08T19:02:05.845Z,1.57
2019-03-08T19:04:36.448Z,1.70
2019-03-08T19:07:10.161Z,1.70
2019-03-08T19:09:46.714Z,1.73
2019-03-08T19:12:33.789Z,1.93
2019-03-08T19:15:05.485Z,1.60
2019-03-08T19:17:45.337Z,1.87
2019-03-08T19:20:31.272Z,1.70
2019-03-08T19:23:09.259Z,1.70
2019-03-08T19:25:40.005Z,1.97
2019-03-08T19:28:16.677Z,1.63
2019-03-08T19:30:53.048Z,1.60
2019-03-08T19:33:23.580Z,1.70
2019-03-08T19:35:57.055Z,1.93
2019-03-08T19:38:30.604Z,1.67
2019-03-08T19:41:13.723Z,1.60
2019-03-08T19:44:02.634Z,1.20
2019-03-08T19:46:39.984Z,1.53
2019-03-08T19:49:10.514Z,1.23
2019-03-08T19:51:41.079Z,1.57
2019-03-08T19:54:14.367Z,2.00
2019-03-08T19:56:45.149Z,1.80
2019-03-08T19:59:18.764Z,1.63
2019-03-08T20:01:49.400Z,1.60
2019-03-08T20:04:22.902Z,1.70
2019-03-08T20:07:05.404Z,1.60
2019-03-08T20:09:42.130Z,2.07
2019-03-08T20:12:15.452Z,1.80
2019-03-08T20:14:46.933Z,1.80
2019-03-08T20:17:20.803Z,1.60
2019-03-08T20:19:54.358Z,1.47
2019-03-08T20:22:43.476Z,1.57
2019-03-08T20:25:14.241Z,1.40
2019-03-08T20:27:47.592Z,1.70
2019-03-08T20:30:18.334Z,1.70
2019-03-08T20:32:54.994Z,1.90
2019-03-08T20:35:32.049Z,2.00
2019-03-08T20:38:05.428Z,1.83
2019-03-08T20:40:37.321Z,1.63
2019-03-08T20:43:09.025Z,2.17
2019-03-08T20:45:40.657Z,1.80
2019-03-08T20:48:10.515Z,1.67
2019-03-08T20:50:39.579Z,1.80
2019-03-08T20:53:08.506Z,1.83
2019-03-08T20:55:37.496Z,1.97
2019-03-08T20:58:06.471Z,1.97
2019-03-08T21:00:36.638Z,1.40
2019-03-08T21:03:05.678Z,1.70
2019-03-08T21:05:34.565Z,1.63
2019-03-08T21:08:03.619Z,1.60
2019-03-08T21:10:32.854Z,1.60
2019-03-08T21:13:01.903Z,1.80
2019-03-08T21:15:31.872Z,1.37
2019-03-08T21:18:00.830Z,1.93
2019-03-08T21:20:29.838Z,1.63
2019-03-08T21:22:59.072Z,1.63
2019-03-08T21:25:28.028Z,1.73
2019-03-08T21:27:56.955Z,1.60
2019-03-08T21:30:25.914Z,1.80
2019-03-08T21:32:54.950Z,2.17
2019-03-08T21:35:23.969Z,1.90
2019-03-08T21:37:53.067Z,1.93
2019-03-08T21:40:22.050Z,1.57
2019-03-08T21:42:51.065Z,1.90
2019-03-08T21:45:20.090Z,2.20
2019-03-08T21:47:49.044Z,1.70
2019-03-08T22:00:28.689Z,1.67
2019-03-08T22:02:57.650Z,1.70
2019-03-08T22:05:44.290Z,2.00
2019-03-08T22:08:17.268Z,1.80
2019-03-08T22:10:45.497Z,1.80
2019-03-08T22:13:14.728Z,2.00
2019-03-08T22:15:43.765Z,2.00
2019-03-08T22:18:12.661Z,1.70
2019-03-08T22:20:41.568Z,1.70
2019-03-08T22:23:10.463Z,1.70
2019-03-08T22:25:39.366Z,1.83
2019-03-08T22:28:08.515Z,1.73
2019-03-08T22:30:37.481Z,2.10
2019-03-08T22:33:06.445Z,2.00
2019-03-08T22:35:35.650Z,1.70
2019-03-08T22:38:04.533Z,1.87
2019-03-08T22:40:33.417Z,1.83
2019-03-08T22:43:02.335Z,1.60
2019-03-08T22:45:31.290Z,1.90
2019-03-08T22:48:00.292Z,1.80
2019-03-08T22:50:29.186Z,2.10
2019-03-08T22:52:58.090Z,1.80
2019-03-08T22:55:27.023Z,1.90
2019-03-08T22:57:55.905Z,1.80
2019-03-08T23:00:30.902Z,1.80
2019-03-08T23:03:01.520Z,1.60
2019-03-08T23:05:30.432Z,1.70
2019-03-08T23:07:59.391Z,2.00
2019-03-08T23:10:28.346Z,1.77
2019-03-08T23:12:57.359Z,2.17
2019-03-08T23:15:26.245Z,1.90
2019-03-08T23:17:55.147Z,1.73
2019-03-08T23:20:24.078Z,1.70
2019-03-08T23:22:52.970Z,1.83
2019-03-08T23:25:21.856Z,1.77
2019-03-08T23:27:52.476Z,2.20
2019-03-08T23:30:23.089Z,1.90
2019-03-08T23:32:52.126Z,1.60
2019-03-08T23:35:21.013Z,1.40
2019-03-08T23:37:49.945Z,1.80
2019-03-08T23:40:18.845Z,1.77
2019-03-08T23:42:47.813Z,1.67
2019-03-08T23:45:16.719Z,1.87
2019-03-08T23:47:45.706Z,1.80
2019-03-08T23:50:14.668Z,1.90
2019-03-08T23:52:43.737Z,1.73
2019-03-08T23:55:12.712Z,1.60
2019-03-08T23:57:41.685Z,1.57
